sensor_id;sensor_type;location;lat;lon;timestamp;temperature;humidity
55648;DHT22;45266;48.756;9.246;2022-09-30T00:00:15;6.80;99.90
55648;DHT22;45266;48.756;9.246;2022-09-30T00:01:18;6.80;99.90
55648;DHT22;45266;48.756;9.246;2022-09-30T00:02:20;6.80;99.90
55648;DHT22;45266;48.756;9.246;2022-09-30T00:03:21;6.80;99.90
55648;DHT22;45266;48.756;9.246;2022-09-30T00:04:24;6.80;99.90
55648;DHT22;45266;48.756;9.246;2022-09-30T00:05:26;6.80;99.90
55648;DHT22;45266;48.756;9.246;2022-09-30T00:06:29;6.80;99.90
55648;DHT22;45266;48.756;9.246;2022-09-30T00:07:31;6.80;99.90
55648;DHT22;45266;48.756;9.246;2022-09-30T00:08:33;6.80;99.90
55648;DHT22;45266;48.756;9.246;2022-09-30T00:09:35;6.80;99.90
55648;DHT22;45266;48.756;9.246;2022-09-30T00:10:37;6.70;99.90
55648;DHT22;45266;48.756;9.246;2022-09-30T00:11:39;6.80;99.90
55648;DHT22;45266;48.756;9.246;2022-09-30T00:12:41;6.80;99.90
55648;DHT22;45266;48.756;9.246;2022-09-30T00:13:45;6.80;99.90
55648;DHT22;45266;48.756;9.246;2022-09-30T00:14:47;6.80;99.90
55648;DHT22;45266;48.756;9.246;2022-09-30T00:15:49;6.80;99.90
55648;DHT22;45266;48.756;9.246;2022-09-30T00:16:51;6.80;99.90
55648;DHT22;45266;48.756;9.246;2022-09-30T00:17:53;6.80;99.90
55648;DHT22;45266;48.756;9.246;2022-09-30T00:18:56;6.90;99.90
55648;DHT22;45266;48.756;9.246;2022-09-30T00:19:58;7.00;99.90
55648;DHT22;45266;48.756;9.246;2022-09-30T00:20:59;6.90;99.90
55648;DHT22;45266;48.756;9.246;2022-09-30T00:22:02;7.00;99.90
55648;DHT22;45266;48.756;9.246;2022-09-30T00:23:04;7.00;99.90
55648;DHT22;45266;48.756;9.246;2022-09-30T00:24:06;7.00;99.90
55648;DHT22;45266;48.756;9.246;2022-09-30T00:25:08;7.00;99.90
55648;DHT22;45266;48.756;9.246;2022-09-30T00:26:16;7.00;99.90
55648;DHT22;45266;48.756;9.246;2022-09-30T00:27:19;6.90;99.90
55648;DHT22;45266;48.756;9.246;2022-09-30T00:28:22;6.90;99.90
55648;DHT22;45266;48.756;9.246;2022-09-30T00:29:23;6.90;99.90
55648;DHT22;45266;48.756;9.246;2022-09-30T00:30:25;6.90;99.90
55648;DHT22;45266;48.756;9.246;2022-09-30T00:31:30;6.90;99.90
55648;DHT22;45266;48.756;9.246;2022-09-30T00:32:32;6.90;99.90
55648;DHT22;45266;48.756;9.246;2022-09-30T00:33:34;6.90;99.90
55648;DHT22;45266;48.756;9.246;2022-09-30T00:34:36;6.90;99.90
55648;DHT22;45266;48.756;9.246;2022-09-30T00:35:38;6.90;99.90
55648;DHT22;45266;48.756;9.246;2022-09-30T00:36:46;7.00;99.90
55648;DHT22;45266;48.756;9.246;2022-09-30T00:37:48;7.00;99.90
55648;DHT22;45266;48.756;9.246;2022-09-30T00:38:50;6.90;99.90
55648;DHT22;45266;48.756;9.246;2022-09-30T00:39:51;7.00;99.90
55648;DHT22;45266;48.756;9.246;2022-09-30T00:40:53;7.00;99.90
55648;DHT22;45266;48.756;9.246;2022-09-30T00:42:00;7.00;99.90
55648;DHT22;45266;48.756;9.246;2022-09-30T00:43:02;7.00;99.90
55648;DHT22;45266;48.756;9.246;2022-09-30T00:45:59;7.00;99.90
55648;DHT22;45266;48.756;9.246;2022-09-30T00:47:01;7.00;99.90
55648;DHT22;45266;48.756;9.246;2022-09-30T00:48:10;7.10;99.90
55648;DHT22;45266;48.756;9.246;2022-09-30T00:49:22;7.10;99.90
55648;DHT22;45266;48.756;9.246;2022-09-30T00:50:41;7.10;99.90
55648;DHT22;45266;48.756;9.246;2022-09-30T00:51:49;7.10;99.90
55648;DHT22;45266;48.756;9.246;2022-09-30T00:53:01;7.10;99.90
55648;DHT22;45266;48.756;9.246;2022-09-30T00:54:09;7.10;99.90
55648;DHT22;45266;48.756;9.246;2022-09-30T00:56:02;7.20;99.90
55648;DHT22;45266;48.756;9.246;2022-09-30T00:57:02;7.20;99.90
55648;DHT22;45266;48.756;9.246;2022-09-30T00:58:07;7.20;99.90
55648;DHT22;45266;48.756;9.246;2022-09-30T00:59:17;7.20;99.90
55648;DHT22;45266;48.756;9.246;2022-09-30T01:00:19;7.20;99.90
55648;DHT22;45266;48.756;9.246;2022-09-30T01:01:22;7.20;99.90
55648;DHT22;45266;48.756;9.246;2022-09-30T01:02:24;7.20;99.90
55648;DHT22;45266;48.756;9.246;2022-09-30T01:03:31;7.20;99.90
55648;DHT22;45266;48.756;9.246;2022-09-30T01:04:34;7.30;99.90
55648;DHT22;45266;48.756;9.246;2022-09-30T01:05:36;7.30;99.90
55648;DHT22;45266;48.756;9.246;2022-09-30T01:06:39;7.30;99.90
55648;DHT22;45266;48.756;9.246;2022-09-30T01:07:41;7.40;99.90
55648;DHT22;45266;48.756;9.246;2022-09-30T01:08:44;7.40;99.90
55648;DHT22;45266;48.756;9.246;2022-09-30T01:09:47;7.40;99.90
55648;DHT22;45266;48.756;9.246;2022-09-30T01:10:49;7.50;99.90
55648;DHT22;45266;48.756;9.246;2022-09-30T01:11:51;7.40;99.90
55648;DHT22;45266;48.756;9.246;2022-09-30T01:12:54;7.40;99.90
55648;DHT22;45266;48.756;9.246;2022-09-30T01:14:00;7.50;99.90
55648;DHT22;45266;48.756;9.246;2022-09-30T01:15:02;7.50;99.90
55648;DHT22;45266;48.756;9.246;2022-09-30T01:18:30;7.50;99.90
55648;DHT22;45266;48.756;9.246;2022-09-30T01:27:46;7.60;99.90
55648;DHT22;45266;48.756;9.246;2022-09-30T01:29:27;7.60;99.90
55648;DHT22;45266;48.756;9.246;2022-09-30T01:32:27;7.60;99.90
55648;DHT22;45266;48.756;9.246;2022-09-30T01:35:06;7.60;99.90
55648;DHT22;45266;48.756;9.246;2022-09-30T01:37:36;7.60;99.90
55648;DHT22;45266;48.756;9.246;2022-09-30T01:40:27;7.60;99.90
55648;DHT22;45266;48.756;9.246;2022-09-30T01:41:51;7.60;99.90
55648;DHT22;45266;48.756;9.246;2022-09-30T01:45:55;7.60;99.90
55648;DHT22;45266;48.756;9.246;2022-09-30T01:47:23;7.70;99.90
55648;DHT22;45266;48.756;9.246;2022-09-30T01:48:40;7.70;99.90
55648;DHT22;45266;48.756;9.246;2022-09-30T01:49:55;7.70;99.90
55648;DHT22;45266;48.756;9.246;2022-09-30T01:52:23;7.60;99.90
55648;DHT22;45266;48.756;9.246;2022-09-30T01:55:02;7.60;99.90
55648;DHT22;45266;48.756;9.246;2022-09-30T01:56:21;7.60;99.90
55648;DHT22;45266;48.756;9.246;2022-09-30T01:58:44;7.60;99.90
55648;DHT22;45266;48.756;9.246;2022-09-30T02:00:03;7.60;99.90
55648;DHT22;45266;48.756;9.246;2022-09-30T02:01:13;7.60;99.90
55648;DHT22;45266;48.756;9.246;2022-09-30T02:02:28;7.50;99.90
55648;DHT22;45266;48.756;9.246;2022-09-30T02:03:43;7.60;99.90
55648;DHT22;45266;48.756;9.246;2022-09-30T02:04:54;7.50;99.90
55648;DHT22;45266;48.756;9.246;2022-09-30T02:06:06;7.50;99.90
55648;DHT22;45266;48.756;9.246;2022-09-30T02:07:14;7.50;99.90
55648;DHT22;45266;48.756;9.246;2022-09-30T02:08:22;7.50;99.90
55648;DHT22;45266;48.756;9.246;2022-09-30T02:09:32;7.50;99.90
55648;DHT22;45266;48.756;9.246;2022-09-30T02:10:58;7.50;99.90
55648;DHT22;45266;48.756;9.246;2022-09-30T02:12:04;7.60;99.90
55648;DHT22;45266;48.756;9.246;2022-09-30T02:13:21;7.60;99.90
55648;DHT22;45266;48.756;9.246;2022-09-30T02:14:32;7.60;99.90
55648;DHT22;45266;48.756;9.246;2022-09-30T02:15:40;7.50;99.90
55648;DHT22;45266;48.756;9.246;2022-09-30T02:17:05;7.60;99.90
55648;DHT22;45266;48.756;9.246;2022-09-30T02:18:16;7.60;99.90
55648;DHT22;45266;48.756;9.246;2022-09-30T02:20:41;7.60;99.90
55648;DHT22;45266;48.756;9.246;2022-09-30T02:21:51;7.60;99.90
55648;DHT22;45266;48.756;9.246;2022-09-30T02:23:01;7.60;99.90
55648;DHT22;45266;48.756;9.246;2022-09-30T02:24:08;7.60;99.90
55648;DHT22;45266;48.756;9.246;2022-09-30T02:25:15;7.60;99.90
55648;DHT22;45266;48.756;9.246;2022-09-30T02:26:23;7.60;99.90
55648;DHT22;45266;48.756;9.246;2022-09-30T02:27:38;7.60;99.90
55648;DHT22;45266;48.756;9.246;2022-09-30T02:28:50;7.60;99.90
55648;DHT22;45266;48.756;9.246;2022-09-30T02:29:56;7.60;99.90
55648;DHT22;45266;48.756;9.246;2022-09-30T02:31:01;7.50;99.90
55648;DHT22;45266;48.756;9.246;2022-09-30T02:32:15;7.60;99.90
55648;DHT22;45266;48.756;9.246;2022-09-30T02:33:24;7.60;99.90
55648;DHT22;45266;48.756;9.246;2022-09-30T02:34:31;7.60;99.90
55648;DHT22;45266;48.756;9.246;2022-09-30T02:35:58;7.60;99.90
55648;DHT22;45266;48.756;9.246;2022-09-30T02:37:35;7.60;99.90
55648;DHT22;45266;48.756;9.246;2022-09-30T02:38:43;7.60;99.90
55648;DHT22;45266;48.756;9.246;2022-09-30T02:39:56;7.60;99.90
55648;DHT22;45266;48.756;9.246;2022-09-30T02:41:05;7.60;99.90
55648;DHT22;45266;48.756;9.246;2022-09-30T02:42:34;7.70;99.90
55648;DHT22;45266;48.756;9.246;2022-09-30T02:43:34;7.70;99.90
55648;DHT22;45266;48.756;9.246;2022-09-30T02:44:36;7.70;99.90
55648;DHT22;45266;48.756;9.246;2022-09-30T02:45:50;7.70;99.90
55648;DHT22;45266;48.756;9.246;2022-09-30T02:47:21;7.70;99.90
55648;DHT22;45266;48.756;9.246;2022-09-30T02:48:55;7.70;99.90
55648;DHT22;45266;48.756;9.246;2022-09-30T02:52:43;7.60;99.90
55648;DHT22;45266;48.756;9.246;2022-09-30T02:54:14;7.70;99.90
55648;DHT22;45266;48.756;9.246;2022-09-30T02:56:51;7.60;99.90
55648;DHT22;45266;48.756;9.246;2022-09-30T02:58:10;7.60;99.90
55648;DHT22;45266;48.756;9.246;2022-09-30T02:59:14;7.60;99.90
55648;DHT22;45266;48.756;9.246;2022-09-30T03:00:16;7.60;99.90
55648;DHT22;45266;48.756;9.246;2022-09-30T03:01:18;7.60;99.90
55648;DHT22;45266;48.756;9.246;2022-09-30T03:02:20;7.60;99.90
55648;DHT22;45266;48.756;9.246;2022-09-30T03:03:32;7.60;99.90
55648;DHT22;45266;48.756;9.246;2022-09-30T03:04:37;7.60;99.90
55648;DHT22;45266;48.756;9.246;2022-09-30T03:05:43;7.60;99.90
55648;DHT22;45266;48.756;9.246;2022-09-30T03:06:45;7.60;99.90
55648;DHT22;45266;48.756;9.246;2022-09-30T03:07:47;7.60;99.90
55648;DHT22;45266;48.756;9.246;2022-09-30T03:08:50;7.60;99.90
55648;DHT22;45266;48.756;9.246;2022-09-30T03:09:56;7.60;99.90
55648;DHT22;45266;48.756;9.246;2022-09-30T03:10:59;7.50;99.90
55648;DHT22;45266;48.756;9.246;2022-09-30T03:12:14;7.60;99.90
55648;DHT22;45266;48.756;9.246;2022-09-30T03:19:38;7.50;99.90
55648;DHT22;45266;48.756;9.246;2022-09-30T03:23:59;7.50;99.90
55648;DHT22;45266;48.756;9.246;2022-09-30T03:28:24;7.50;99.90
55648;DHT22;45266;48.756;9.246;2022-09-30T03:35:51;7.50;99.90
55648;DHT22;45266;48.756;9.246;2022-09-30T03:37:06;7.50;99.90
55648;DHT22;45266;48.756;9.246;2022-09-30T03:38:33;7.50;99.90
55648;DHT22;45266;48.756;9.246;2022-09-30T03:42:35;7.50;99.90
55648;DHT22;45266;48.756;9.246;2022-09-30T03:45:06;7.50;99.90
55648;DHT22;45266;48.756;9.246;2022-09-30T03:46:43;7.50;99.90
55648;DHT22;45266;48.756;9.246;2022-09-30T03:47:46;7.50;99.90
55648;DHT22;45266;48.756;9.246;2022-09-30T03:48:54;7.50;99.90
55648;DHT22;45266;48.756;9.246;2022-09-30T03:49:58;7.50;99.90
55648;DHT22;45266;48.756;9.246;2022-09-30T03:51:01;7.50;99.90
55648;DHT22;45266;48.756;9.246;2022-09-30T03:52:05;7.50;99.90
55648;DHT22;45266;48.756;9.246;2022-09-30T03:53:09;7.50;99.90
55648;DHT22;45266;48.756;9.246;2022-09-30T03:54:13;7.50;99.90
55648;DHT22;45266;48.756;9.246;2022-09-30T03:55:16;7.40;99.90
55648;DHT22;45266;48.756;9.246;2022-09-30T03:56:27;7.40;99.90
55648;DHT22;45266;48.756;9.246;2022-09-30T03:57:30;7.40;99.90
55648;DHT22;45266;48.756;9.246;2022-09-30T03:58:32;7.40;99.90
55648;DHT22;45266;48.756;9.246;2022-09-30T03:59:35;7.40;99.90
55648;DHT22;45266;48.756;9.246;2022-09-30T04:00:37;7.40;99.90
55648;DHT22;45266;48.756;9.246;2022-09-30T04:01:39;7.30;99.90
55648;DHT22;45266;48.756;9.246;2022-09-30T04:02:41;7.40;99.90
55648;DHT22;45266;48.756;9.246;2022-09-30T04:03:43;7.40;99.90
55648;DHT22;45266;48.756;9.246;2022-09-30T04:04:45;7.40;99.90
55648;DHT22;45266;48.756;9.246;2022-09-30T04:05:47;7.40;99.90
55648;DHT22;45266;48.756;9.246;2022-09-30T04:06:49;7.40;99.90
55648;DHT22;45266;48.756;9.246;2022-09-30T04:07:50;7.40;99.90
55648;DHT22;45266;48.756;9.246;2022-09-30T04:08:52;7.40;99.90
55648;DHT22;45266;48.756;9.246;2022-09-30T04:09:54;7.40;99.90
55648;DHT22;45266;48.756;9.246;2022-09-30T04:10:56;7.40;99.90
55648;DHT22;45266;48.756;9.246;2022-09-30T04:11:58;7.30;99.90
55648;DHT22;45266;48.756;9.246;2022-09-30T04:13:00;7.30;99.90
55648;DHT22;45266;48.756;9.246;2022-09-30T04:14:02;7.40;99.90
55648;DHT22;45266;48.756;9.246;2022-09-30T04:15:04;7.30;99.90
55648;DHT22;45266;48.756;9.246;2022-09-30T04:16:07;7.30;99.90
55648;DHT22;45266;48.756;9.246;2022-09-30T04:17:09;7.30;99.90
55648;DHT22;45266;48.756;9.246;2022-09-30T04:18:11;7.30;99.90
55648;DHT22;45266;48.756;9.246;2022-09-30T04:19:12;7.30;99.90
55648;DHT22;45266;48.756;9.246;2022-09-30T04:20:14;7.30;99.90
55648;DHT22;45266;48.756;9.246;2022-09-30T04:21:16;7.30;99.90
55648;DHT22;45266;48.756;9.246;2022-09-30T04:22:18;7.30;99.90
55648;DHT22;45266;48.756;9.246;2022-09-30T04:23:24;7.30;99.90
55648;DHT22;45266;48.756;9.246;2022-09-30T04:24:26;7.20;99.90
55648;DHT22;45266;48.756;9.246;2022-09-30T04:25:28;7.30;99.90
55648;DHT22;45266;48.756;9.246;2022-09-30T04:26:29;7.20;99.90
55648;DHT22;45266;48.756;9.246;2022-09-30T04:27:31;7.20;99.90
55648;DHT22;45266;48.756;9.246;2022-09-30T04:28:33;7.20;99.90
55648;DHT22;45266;48.756;9.246;2022-09-30T04:29:35;7.20;99.90
55648;DHT22;45266;48.756;9.246;2022-09-30T04:30:37;7.20;99.90
55648;DHT22;45266;48.756;9.246;2022-09-30T04:31:39;7.20;99.90
55648;DHT22;45266;48.756;9.246;2022-09-30T04:32:42;7.20;99.90
55648;DHT22;45266;48.756;9.246;2022-09-30T04:33:46;7.10;99.90
55648;DHT22;45266;48.756;9.246;2022-09-30T04:34:47;7.10;99.90
55648;DHT22;45266;48.756;9.246;2022-09-30T04:35:53;7.20;99.90
55648;DHT22;45266;48.756;9.246;2022-09-30T04:36:54;7.10;99.90
55648;DHT22;45266;48.756;9.246;2022-09-30T04:37:56;7.20;99.90
55648;DHT22;45266;48.756;9.246;2022-09-30T04:38:58;7.20;99.90
55648;DHT22;45266;48.756;9.246;2022-09-30T04:40:00;7.10;99.90
55648;DHT22;45266;48.756;9.246;2022-09-30T04:41:04;7.10;99.90
55648;DHT22;45266;48.756;9.246;2022-09-30T04:42:06;7.10;99.90
55648;DHT22;45266;48.756;9.246;2022-09-30T04:43:08;7.10;99.90
55648;DHT22;45266;48.756;9.246;2022-09-30T04:44:09;7.10;99.90
55648;DHT22;45266;48.756;9.246;2022-09-30T04:45:12;7.00;99.90
55648;DHT22;45266;48.756;9.246;2022-09-30T04:46:19;7.00;99.90
55648;DHT22;45266;48.756;9.246;2022-09-30T04:47:21;7.00;99.90
55648;DHT22;45266;48.756;9.246;2022-09-30T04:48:25;7.00;99.90
55648;DHT22;45266;48.756;9.246;2022-09-30T04:49:30;6.90;99.90
55648;DHT22;45266;48.756;9.246;2022-09-30T04:50:32;6.90;99.90
55648;DHT22;45266;48.756;9.246;2022-09-30T04:51:34;6.90;99.90
55648;DHT22;45266;48.756;9.246;2022-09-30T04:52:36;6.90;99.90
55648;DHT22;45266;48.756;9.246;2022-09-30T04:53:39;6.80;99.90
55648;DHT22;45266;48.756;9.246;2022-09-30T04:54:41;6.80;99.90
55648;DHT22;45266;48.756;9.246;2022-09-30T04:55:44;6.80;99.90
55648;DHT22;45266;48.756;9.246;2022-09-30T04:56:46;6.80;99.90
55648;DHT22;45266;48.756;9.246;2022-09-30T04:57:48;6.70;99.90
55648;DHT22;45266;48.756;9.246;2022-09-30T04:58:51;6.70;99.90
55648;DHT22;45266;48.756;9.246;2022-09-30T04:59:53;6.70;99.90
55648;DHT22;45266;48.756;9.246;2022-09-30T05:01:05;6.70;99.90
55648;DHT22;45266;48.756;9.246;2022-09-30T05:02:07;6.70;99.90
55648;DHT22;45266;48.756;9.246;2022-09-30T05:03:10;6.70;99.90
55648;DHT22;45266;48.756;9.246;2022-09-30T05:04:12;6.70;99.90
55648;DHT22;45266;48.756;9.246;2022-09-30T05:05:13;6.70;99.90
55648;DHT22;45266;48.756;9.246;2022-09-30T05:06:15;6.70;99.90
55648;DHT22;45266;48.756;9.246;2022-09-30T05:07:17;6.70;99.90
55648;DHT22;45266;48.756;9.246;2022-09-30T05:08:19;6.70;99.90
55648;DHT22;45266;48.756;9.246;2022-09-30T05:09:21;6.70;99.90
55648;DHT22;45266;48.756;9.246;2022-09-30T05:10:23;6.70;99.90
55648;DHT22;45266;48.756;9.246;2022-09-30T05:11:25;6.70;99.90
55648;DHT22;45266;48.756;9.246;2022-09-30T05:12:28;6.70;99.90
55648;DHT22;45266;48.756;9.246;2022-09-30T05:13:32;6.70;99.90
55648;DHT22;45266;48.756;9.246;2022-09-30T05:14:34;6.70;99.90
55648;DHT22;45266;48.756;9.246;2022-09-30T05:15:36;6.70;99.90
55648;DHT22;45266;48.756;9.246;2022-09-30T05:16:38;6.80;99.90
55648;DHT22;45266;48.756;9.246;2022-09-30T05:17:39;6.80;99.90
55648;DHT22;45266;48.756;9.246;2022-09-30T05:18:42;6.80;99.90
55648;DHT22;45266;48.756;9.246;2022-09-30T05:19:46;6.80;99.90
55648;DHT22;45266;48.756;9.246;2022-09-30T05:20:49;6.80;99.90
55648;DHT22;45266;48.756;9.246;2022-09-30T05:21:51;6.80;99.90
55648;DHT22;45266;48.756;9.246;2022-09-30T05:22:54;6.80;99.90
55648;DHT22;45266;48.756;9.246;2022-09-30T05:23:56;6.80;99.90
55648;DHT22;45266;48.756;9.246;2022-09-30T05:24:58;6.80;99.90
55648;DHT22;45266;48.756;9.246;2022-09-30T05:26:01;6.80;99.90
55648;DHT22;45266;48.756;9.246;2022-09-30T05:27:04;6.80;99.90
55648;DHT22;45266;48.756;9.246;2022-09-30T05:28:05;6.80;99.90
55648;DHT22;45266;48.756;9.246;2022-09-30T05:29:08;6.90;99.90
55648;DHT22;45266;48.756;9.246;2022-09-30T05:30:10;6.90;99.90
55648;DHT22;45266;48.756;9.246;2022-09-30T05:31:12;6.90;99.90
55648;DHT22;45266;48.756;9.246;2022-09-30T05:32:14;6.90;99.90
55648;DHT22;45266;48.756;9.246;2022-09-30T05:33:16;7.00;99.90
55648;DHT22;45266;48.756;9.246;2022-09-30T05:34:17;7.00;99.90
55648;DHT22;45266;48.756;9.246;2022-09-30T05:35:19;7.00;99.90
55648;DHT22;45266;48.756;9.246;2022-09-30T05:36:21;7.00;99.90
55648;DHT22;45266;48.756;9.246;2022-09-30T05:37:23;7.10;99.90
55648;DHT22;45266;48.756;9.246;2022-09-30T05:38:24;7.00;99.90
55648;DHT22;45266;48.756;9.246;2022-09-30T05:39:26;7.10;99.90
55648;DHT22;45266;48.756;9.246;2022-09-30T05:40:28;7.10;99.90
55648;DHT22;45266;48.756;9.246;2022-09-30T05:41:30;7.10;99.90
55648;DHT22;45266;48.756;9.246;2022-09-30T05:42:32;7.20;99.90
55648;DHT22;45266;48.756;9.246;2022-09-30T05:43:40;7.20;99.90
55648;DHT22;45266;48.756;9.246;2022-09-30T05:44:43;7.20;99.90
55648;DHT22;45266;48.756;9.246;2022-09-30T05:46:11;7.20;99.90
55648;DHT22;45266;48.756;9.246;2022-09-30T05:47:12;7.20;99.90
55648;DHT22;45266;48.756;9.246;2022-09-30T05:48:14;7.20;99.90
55648;DHT22;45266;48.756;9.246;2022-09-30T05:49:17;7.30;99.90
55648;DHT22;45266;48.756;9.246;2022-09-30T05:50:19;7.30;99.90
55648;DHT22;45266;48.756;9.246;2022-09-30T05:51:22;7.40;99.90
55648;DHT22;45266;48.756;9.246;2022-09-30T05:52:24;7.30;99.90
55648;DHT22;45266;48.756;9.246;2022-09-30T05:53:27;7.40;99.90
55648;DHT22;45266;48.756;9.246;2022-09-30T05:54:29;7.40;99.90
55648;DHT22;45266;48.756;9.246;2022-09-30T05:55:32;7.40;99.90
55648;DHT22;45266;48.756;9.246;2022-09-30T05:56:39;7.40;99.90
55648;DHT22;45266;48.756;9.246;2022-09-30T05:57:41;7.40;99.90
55648;DHT22;45266;48.756;9.246;2022-09-30T05:58:43;7.40;99.90
55648;DHT22;45266;48.756;9.246;2022-09-30T05:59:45;7.40;99.90
55648;DHT22;45266;48.756;9.246;2022-09-30T06:00:48;7.40;99.90
55648;DHT22;45266;48.756;9.246;2022-09-30T06:01:50;7.40;99.90
55648;DHT22;45266;48.756;9.246;2022-09-30T06:02:52;7.40;99.90
55648;DHT22;45266;48.756;9.246;2022-09-30T06:03:54;7.50;99.90
55648;DHT22;45266;48.756;9.246;2022-09-30T06:04:56;7.50;99.90
55648;DHT22;45266;48.756;9.246;2022-09-30T06:05:57;7.50;99.90
55648;DHT22;45266;48.756;9.246;2022-09-30T06:06:59;7.60;99.90
55648;DHT22;45266;48.756;9.246;2022-09-30T06:08:01;7.50;99.90
55648;DHT22;45266;48.756;9.246;2022-09-30T06:09:04;7.60;99.90
55648;DHT22;45266;48.756;9.246;2022-09-30T06:10:07;7.60;99.90
55648;DHT22;45266;48.756;9.246;2022-09-30T06:11:16;7.60;99.90
55648;DHT22;45266;48.756;9.246;2022-09-30T06:12:17;7.60;99.90
55648;DHT22;45266;48.756;9.246;2022-09-30T06:13:19;7.60;99.90
55648;DHT22;45266;48.756;9.246;2022-09-30T06:14:22;7.50;99.90
55648;DHT22;45266;48.756;9.246;2022-09-30T06:15:24;7.50;99.90
55648;DHT22;45266;48.756;9.246;2022-09-30T06:16:26;7.50;99.90
55648;DHT22;45266;48.756;9.246;2022-09-30T06:17:28;7.60;99.90
55648;DHT22;45266;48.756;9.246;2022-09-30T06:18:30;7.50;99.90
55648;DHT22;45266;48.756;9.246;2022-09-30T06:19:31;7.50;99.90
55648;DHT22;45266;48.756;9.246;2022-09-30T06:20:33;7.50;99.90
55648;DHT22;45266;48.756;9.246;2022-09-30T06:21:35;7.50;99.90
55648;DHT22;45266;48.756;9.246;2022-09-30T06:22:37;7.50;99.90
55648;DHT22;45266;48.756;9.246;2022-09-30T06:23:39;7.50;99.90
55648;DHT22;45266;48.756;9.246;2022-09-30T06:24:41;7.50;99.90
55648;DHT22;45266;48.756;9.246;2022-09-30T06:25:43;7.50;99.90
55648;DHT22;45266;48.756;9.246;2022-09-30T06:26:45;7.60;99.90
55648;DHT22;45266;48.756;9.246;2022-09-30T06:27:46;7.60;99.90
55648;DHT22;45266;48.756;9.246;2022-09-30T06:28:49;7.60;99.90
55648;DHT22;45266;48.756;9.246;2022-09-30T06:29:52;7.60;99.90
55648;DHT22;45266;48.756;9.246;2022-09-30T06:30:54;7.70;99.90
55648;DHT22;45266;48.756;9.246;2022-09-30T06:31:55;7.70;99.90
55648;DHT22;45266;48.756;9.246;2022-09-30T06:32:57;7.70;99.90
55648;DHT22;45266;48.756;9.246;2022-09-30T06:33:59;7.70;99.90
55648;DHT22;45266;48.756;9.246;2022-09-30T06:35:02;7.70;99.90
55648;DHT22;45266;48.756;9.246;2022-09-30T06:36:04;7.70;99.90
55648;DHT22;45266;48.756;9.246;2022-09-30T06:37:07;7.70;99.90
55648;DHT22;45266;48.756;9.246;2022-09-30T06:38:10;7.80;99.90
55648;DHT22;45266;48.756;9.246;2022-09-30T06:39:11;7.80;99.90
55648;DHT22;45266;48.756;9.246;2022-09-30T06:40:14;7.80;99.90
55648;DHT22;45266;48.756;9.246;2022-09-30T06:41:16;7.80;99.90
55648;DHT22;45266;48.756;9.246;2022-09-30T06:42:18;7.70;99.90
55648;DHT22;45266;48.756;9.246;2022-09-30T06:43:20;7.80;99.90
55648;DHT22;45266;48.756;9.246;2022-09-30T06:44:22;7.70;99.90
55648;DHT22;45266;48.756;9.246;2022-09-30T06:45:23;7.80;99.90
55648;DHT22;45266;48.756;9.246;2022-09-30T06:46:33;7.80;99.90
55648;DHT22;45266;48.756;9.246;2022-09-30T06:47:48;7.80;99.90
55648;DHT22;45266;48.756;9.246;2022-09-30T06:49:01;7.80;99.90
55648;DHT22;45266;48.756;9.246;2022-09-30T06:50:14;7.90;99.90
55648;DHT22;45266;48.756;9.246;2022-09-30T06:51:26;7.90;99.90
55648;DHT22;45266;48.756;9.246;2022-09-30T06:52:30;7.90;99.90
55648;DHT22;45266;48.756;9.246;2022-09-30T06:53:32;7.90;99.90
55648;DHT22;45266;48.756;9.246;2022-09-30T06:54:36;7.90;99.90
55648;DHT22;45266;48.756;9.246;2022-09-30T06:55:38;7.90;99.90
55648;DHT22;45266;48.756;9.246;2022-09-30T06:56:40;7.90;99.90
55648;DHT22;45266;48.756;9.246;2022-09-30T06:57:42;8.00;99.90
55648;DHT22;45266;48.756;9.246;2022-09-30T06:58:46;8.00;99.90
55648;DHT22;45266;48.756;9.246;2022-09-30T06:59:48;8.00;99.90
55648;DHT22;45266;48.756;9.246;2022-09-30T07:01:04;8.00;99.90
55648;DHT22;45266;48.756;9.246;2022-09-30T07:02:09;8.00;99.90
55648;DHT22;45266;48.756;9.246;2022-09-30T07:03:23;8.00;99.90
55648;DHT22;45266;48.756;9.246;2022-09-30T07:04:25;8.00;99.90
55648;DHT22;45266;48.756;9.246;2022-09-30T07:05:27;8.00;99.90
55648;DHT22;45266;48.756;9.246;2022-09-30T07:06:29;8.00;99.90
55648;DHT22;45266;48.756;9.246;2022-09-30T07:07:31;8.00;99.90
55648;DHT22;45266;48.756;9.246;2022-09-30T07:08:37;8.00;99.90
55648;DHT22;45266;48.756;9.246;2022-09-30T07:09:39;8.00;99.90
55648;DHT22;45266;48.756;9.246;2022-09-30T07:10:41;8.00;99.90
55648;DHT22;45266;48.756;9.246;2022-09-30T07:11:42;8.00;99.90
55648;DHT22;45266;48.756;9.246;2022-09-30T07:12:49;8.00;99.90
55648;DHT22;45266;48.756;9.246;2022-09-30T07:13:51;8.00;99.90
55648;DHT22;45266;48.756;9.246;2022-09-30T07:14:53;8.00;99.90
55648;DHT22;45266;48.756;9.246;2022-09-30T07:15:56;7.90;99.90
55648;DHT22;45266;48.756;9.246;2022-09-30T07:16:58;8.00;99.90
55648;DHT22;45266;48.756;9.246;2022-09-30T07:18:00;8.00;99.90
55648;DHT22;45266;48.756;9.246;2022-09-30T07:19:03;8.00;99.90
55648;DHT22;45266;48.756;9.246;2022-09-30T07:20:06;8.00;99.90
55648;DHT22;45266;48.756;9.246;2022-09-30T07:21:09;8.00;99.90
55648;DHT22;45266;48.756;9.246;2022-09-30T07:22:11;8.00;99.90
55648;DHT22;45266;48.756;9.246;2022-09-30T07:23:28;8.00;99.90
55648;DHT22;45266;48.756;9.246;2022-09-30T07:24:30;8.00;99.90
55648;DHT22;45266;48.756;9.246;2022-09-30T07:25:32;8.10;99.90
55648;DHT22;45266;48.756;9.246;2022-09-30T07:26:34;8.10;99.90
55648;DHT22;45266;48.756;9.246;2022-09-30T07:27:35;8.10;99.90
55648;DHT22;45266;48.756;9.246;2022-09-30T07:28:38;8.10;99.90
55648;DHT22;45266;48.756;9.246;2022-09-30T07:29:41;8.20;99.90
55648;DHT22;45266;48.756;9.246;2022-09-30T07:31:10;8.20;99.90
55648;DHT22;45266;48.756;9.246;2022-09-30T07:32:32;8.20;99.90
55648;DHT22;45266;48.756;9.246;2022-09-30T07:33:34;8.20;99.90
55648;DHT22;45266;48.756;9.246;2022-09-30T07:34:36;8.30;99.90
55648;DHT22;45266;48.756;9.246;2022-09-30T07:35:38;8.30;99.90
55648;DHT22;45266;48.756;9.246;2022-09-30T07:36:39;8.30;99.90
55648;DHT22;45266;48.756;9.246;2022-09-30T07:37:42;8.30;99.90
55648;DHT22;45266;48.756;9.246;2022-09-30T07:38:45;8.30;99.90
55648;DHT22;45266;48.756;9.246;2022-09-30T07:39:51;8.40;99.90
55648;DHT22;45266;48.756;9.246;2022-09-30T07:41:05;8.40;99.90
55648;DHT22;45266;48.756;9.246;2022-09-30T07:42:14;8.50;99.90
55648;DHT22;45266;48.756;9.246;2022-09-30T07:43:24;8.50;99.90
55648;DHT22;45266;48.756;9.246;2022-09-30T07:44:27;8.50;99.90
55648;DHT22;45266;48.756;9.246;2022-09-30T07:45:29;8.60;99.90
55648;DHT22;45266;48.756;9.246;2022-09-30T07:46:34;8.60;99.90
55648;DHT22;45266;48.756;9.246;2022-09-30T07:47:39;8.70;99.90
55648;DHT22;45266;48.756;9.246;2022-09-30T07:48:42;8.70;99.90
55648;DHT22;45266;48.756;9.246;2022-09-30T07:49:47;8.80;99.90
55648;DHT22;45266;48.756;9.246;2022-09-30T07:50:52;8.80;99.90
55648;DHT22;45266;48.756;9.246;2022-09-30T07:51:56;8.80;99.90
55648;DHT22;45266;48.756;9.246;2022-09-30T07:52:59;8.80;99.90
55648;DHT22;45266;48.756;9.246;2022-09-30T07:54:03;8.80;99.90